Mason, South Dakota
Current Conditions -  °F | °C
As of 10:35 PM on Wednesday 17 Dec 2014 (Local Time) from KSPF Reporting Station
Haze Haze  
Wind Chill: 12°   Ceiling: Unl
Heat Index: 12°   Visibility: 4mi
Dew Point: 10°   Wind: 3mph
Humidity: 92%   Direction: 150°SSE
Pressure: 29.95"   Gusts: NA
Location:  44.9293°N, 103.753°W
Report Text: KSPF 180535Z AUTO 15003KT 4SM BR CLR M11/M12 A2995 RMK AO2
Loading
Personal Weather Stations






























Interactive Weather Map New forecast layout! Learn more

10-Day Weather Forecast

Advertisements
Track Severe Weather on mobile